Time;durP1;ratioP1;P1;durP2;ratioP2;P2;SDS_P1;SDS_P2;PMS_P1;PMS_P2;Temp;Humidity;BMP_temperature;BMP_pressure;BME280_temperature;BME280_humidity;BME280_pressure;Samples;Min_cycle;Max_cycle;Signal;HPM_P1;HPM_P2
2021/04/08 00:00:16;;;;;;;;;;;6.40;99.90;;;6.25;66.24;102203.13;5092056;28;19923;-72
2021/04/08 00:02:44;;;;;;;;;;;6.20;99.90;;;6.02;67.16;102180.44;5091972;28;19973;-72
2021/04/08 00:05:14;;;;;;;;;;;6.20;99.90;;;5.88;67.06;102196.56;5093149;28;20026;-72
2021/04/08 00:07:46;;;;;;;;;;;6.00;99.90;;;6.01;67.21;102223.31;5093169;28;19927;-72
2021/04/08 00:10:14;;;;;;;;;;;6.00;99.90;;;6.02;68.08;102208.44;5093032;28;19920;-72
2021/04/08 00:12:41;;;;;;;;;;;5.90;99.90;;;5.98;68.40;102202.16;5092007;28;19927;-72
2021/04/08 00:15:11;;;;;;;;;;;6.00;99.90;;;6.18;68.24;102201.16;5092179;28;20335;-72
2021/04/08 00:17:38;;;;;;;;;;;6.10;99.90;;;6.07;67.39;102178.88;5093020;28;19928;-72
2021/04/08 00:20:09;;;;;;;;;;;6.20;99.90;;;6.36;67.39;102191.28;5093162;28;19981;-72
2021/04/08 00:22:36;;;;;;;;;;;6.30;99.90;;;6.49;66.99;102202.16;5093014;28;19920;-72
2021/04/08 00:25:04;;;;;;;;;;;6.40;99.90;;;6.52;66.53;102183.91;5093053;28;19947;-72
2021/04/08 00:27:34;;;;;;;;;;;6.50;99.90;;;6.65;66.11;102196.59;5091544;28;19920;-72
2021/04/08 00:30:02;;;;;;;;;;;6.60;99.90;;;6.34;66.38;102190.34;5093062;28;19920;-72
2021/04/08 00:32:29;;;;;;;;;;;6.30;99.90;;;6.28;65.78;102197.09;5092965;28;20401;-72
2021/04/08 00:34:56;;;;;;;;;;;6.20;99.90;;;6.32;65.25;102196.38;5092902;28;19920;-72
2021/04/08 00:37:25;;;;;;;;;;;6.20;99.90;;;6.37;64.47;102184.25;5092974;28;19943;-72
2021/04/08 00:39:52;;;;;;;;;;;6.20;99.90;;;6.37;64.56;102190.41;5091683;28;19996;-72
2021/04/08 00:42:19;;;;;;;;;;;6.30;99.90;;;6.48;65.09;102198.69;5092961;28;19932;-72
2021/04/08 00:44:48;;;;;;;;;;;6.30;99.90;;;6.46;63.99;102200.34;5093198;28;19973;-72
2021/04/08 00:47:17;;;;;;;;;;;6.30;99.90;;;6.45;63.10;102201.19;5092708;28;19926;-72
2021/04/08 00:49:47;;;;;;;;;;;6.30;99.90;;;6.35;62.26;102163.19;5092725;28;19981;-72
2021/04/08 00:52:16;;;;;;;;;;;6.30;99.90;;;6.65;60.82;102191.34;5092725;28;20718;-72
2021/04/08 00:54:44;;;;;;;;;;;6.50;99.90;;;6.63;59.83;102191.28;5095109;28;20076;-72
2021/04/08 00:57:11;;;;;;;;;;;6.50;99.90;;;5.98;58.85;102106.78;5096583;28;20385;-72
2021/04/08 00:59:40;;;;;;;;;;;6.40;99.90;;;6.30;58.15;102193.69;5095490;28;19973;-73
2021/04/08 01:02:09;;;;;;;;;;;6.30;99.90;;;6.29;56.64;102209.41;5096235;28;19927;-72
2021/04/08 01:04:37;;;;;;;;;;;6.20;99.90;;;5.37;56.40;102104.59;5096278;28;19920;-72
2021/04/08 01:07:04;;;;;;;;;;;6.00;99.90;;;5.95;55.69;102199.44;5096464;28;19920;-73
2021/04/08 01:09:31;;;;;;;;;;;5.90;99.90;;;6.09;54.55;102205.19;5096403;28;19942;-72
2021/04/08 01:11:59;;;;;;;;;;;5.90;99.90;;;6.15;54.11;102197.53;5096309;28;19981;-73
2021/04/08 01:14:27;;;;;;;;;;;6.00;99.90;;;6.29;54.15;102191.88;5095140;28;20350;-72
2021/04/08 01:16:56;;;;;;;;;;;6.10;99.90;;;6.35;53.49;102189.47;5096035;28;19920;-72
2021/04/08 01:19:54;;;;;;;;;;;6.20;99.90;;;6.52;53.46;102184.78;5096337;28;19928;-72
2021/04/08 01:22:32;;;;;;;;;;;6.30;99.90;;;6.53;53.26;102189.19;5096141;28;20106;-72
2021/04/08 01:25:28;;;;;;;;;;;6.40;99.90;;;6.59;53.02;102183.25;5096011;28;19924;-73
2021/04/08 01:28:08;;;;;;;;;;;6.50;99.90;;;6.59;52.63;102193.75;5095776;28;19919;-73
2021/04/08 01:30:41;;;;;;;;;;;6.50;99.90;;;6.54;53.28;102203.25;5096061;28;20340;-73
2021/04/08 01:33:11;;;;;;;;;;;6.40;99.90;;;6.34;54.09;102211.34;5094761;28;19920;-72
2021/04/08 01:35:42;;;;;;;;;;;6.30;99.90;;;6.17;55.10;102216.88;5095762;28;20007;-73
2021/04/08 01:38:14;;;;;;;;;;;6.10;99.90;;;6.05;55.64;102188.44;5096004;28;20018;-73
2021/04/08 01:40:44;;;;;;;;;;;6.10;99.90;;;6.18;55.20;102214.28;5095877;28;19920;-73
2021/04/08 01:43:12;;;;;;;;;;;6.00;99.90;;;6.14;55.46;102217.63;5094363;28;19920;-72
2021/04/08 01:45:42;;;;;;;;;;;6.00;99.90;;;6.02;55.34;102221.59;5095707;28;20412;-72
2021/04/08 01:48:10;;;;;;;;;;;5.90;99.90;;;6.04;55.26;102231.28;5094126;28;19920;-72
2021/04/08 01:50:37;;;;;;;;;;;6.00;99.90;;;6.01;54.97;102215.44;5095605;28;19923;-72
2021/04/08 01:53:05;;;;;;;;;;;5.90;99.90;;;6.08;54.82;102206.91;5095694;28;19927;-72
2021/04/08 01:55:35;;;;;;;;;;;5.90;99.90;;;6.06;54.56;102205.06;5095625;28;19920;-72
2021/04/08 01:58:03;;;;;;;;;;;5.90;99.90;;;6.12;54.28;102206.19;5095523;28;20428;-73
2021/04/08 02:00:34;;;;;;;;;;;6.00;99.90;;;5.64;54.28;102112.53;5095561;28;20327;-72
2021/04/08 02:03:03;;;;;;;;;;;6.00;99.90;;;6.23;53.58;102207.44;5094096;28;19919;-72
2021/04/08 02:05:30;;;;;;;;;;;6.00;99.90;;;6.00;54.39;102174.22;5093762;28;20334;-72
2021/04/08 02:07:58;;;;;;;;;;;6.00;99.90;;;6.33;54.10;102206.03;5094009;28;20420;-73
2021/04/08 02:10:29;;;;;;;;;;;6.10;99.90;;;6.20;54.23;102196.84;5095215;28;19927;-72
2021/04/08 02:12:56;;;;;;;;;;;6.10;99.90;;;6.17;53.76;102206.34;5093833;28;19927;-73
2021/04/08 02:15:24;;;;;;;;;;;6.10;99.90;;;6.00;54.09;102176.84;5094870;28;20431;-73
2021/04/08 02:17:54;;;;;;;;;;;6.10;99.90;;;6.13;54.21;102179.09;5095090;28;19924;-73
2021/04/08 02:20:29;;;;;;;;;;;6.10;99.90;;;6.27;54.20;102201.44;5093757;28;19920;-73
2021/04/08 02:22:59;;;;;;;;;;;6.10;99.90;;;6.28;53.98;102205.88;5094881;28;20397;-73
2021/04/08 02:25:30;;;;;;;;;;;6.10;99.90;;;6.29;53.92;102204.16;5094815;28;19927;-73
2021/04/08 02:27:59;;;;;;;;;;;6.10;99.90;;;6.19;53.57;102194.16;5094502;28;19920;-73
2021/04/08 02:30:27;;;;;;;;;;;6.10;99.90;;;6.38;54.12;102200.09;5093647;28;19927;-72
2021/04/08 02:32:54;;;;;;;;;;;6.20;99.90;;;6.19;53.80;102196.78;5093560;28;19920;-73
2021/04/08 02:35:22;;;;;;;;;;;6.10;99.90;;;6.24;53.97;102206.63;5093528;28;20388;-72
2021/04/08 02:37:51;;;;;;;;;;;6.10;99.90;;;6.30;53.97;102195.41;5094602;28;20311;-72
2021/04/08 02:40:20;;;;;;;;;;;6.20;99.90;;;6.14;54.25;102204.50;5094499;28;19959;-72
2021/04/08 02:42:47;;;;;;;;;;;6.10;99.90;;;6.24;54.40;102206.63;5094646;28;19923;-72
2021/04/08 02:45:16;;;;;;;;;;;6.10;99.90;;;5.69;54.65;102110.94;5094391;28;20018;-73
2021/04/08 02:47:43;;;;;;;;;;;6.00;99.90;;;6.35;54.01;102209.59;5093092;28;19920;-72
2021/04/08 02:50:13;;;;;;;;;;;6.20;99.90;;;6.39;53.78;102204.50;5094345;28;19927;-72
2021/04/08 02:52:49;;;;;;;;;;;6.30;99.90;;;6.47;53.39;102196.88;5094255;28;19926;-72
2021/04/08 02:55:23;;;;;;;;;;;6.40;99.90;;;6.50;53.37;102206.59;5094368;28;19923;-72
2021/04/08 02:57:58;;;;;;;;;;;6.40;99.90;;;6.41;53.56;102172.16;5094395;28;19927;-72
2021/04/08 03:00:29;;;;;;;;;;;6.40;99.90;;;5.90;53.08;102095.09;5094311;28;19927;-72
2021/04/08 03:03:00;;;;;;;;;;;6.50;99.90;;;5.74;53.06;102077.91;5094179;28;19919;-72
2021/04/08 03:05:29;;;;;;;;;;;6.40;99.90;;;6.50;53.19;102210.13;5093999;28;19920;-73
2021/04/08 03:07:57;;;;;;;;;;;6.40;99.90;;;6.43;52.67;102199.38;5094198;28;19924;-73
2021/04/08 03:10:26;;;;;;;;;;;6.40;99.90;;;6.20;53.36;102188.97;5094247;28;19924;-72
2021/04/08 03:12:55;;;;;;;;;;;6.30;99.90;;;6.32;52.63;102206.88;5093880;28;20455;-72
2021/04/08 03:15:25;;;;;;;;;;;6.20;99.90;;;6.35;52.71;102204.34;5092604;28;19920;-72
2021/04/08 03:17:54;;;;;;;;;;;6.20;99.90;;;6.31;52.78;102195.47;5093035;28;20357;-72
2021/04/08 03:20:24;;;;;;;;;;;6.20;99.90;;;6.45;52.18;102205.53;5092598;28;19924;-72
2021/04/08 03:22:53;;;;;;;;;;;6.30;99.90;;;6.43;51.63;102199.38;5093793;28;19920;-73
2021/04/08 03:25:20;;;;;;;;;;;6.30;99.90;;;6.45;51.62;102195.03;5093603;28;19928;-72
2021/04/08 03:27:51;;;;;;;;;;;6.40;99.90;;;6.45;51.10;102203.81;5092117;28;19928;-72
2021/04/08 03:30:20;;;;;;;;;;;6.40;99.90;;;6.48;51.02;102198.69;5093482;28;19981;-72
2021/04/08 03:32:47;;;;;;;;;;;6.40;99.90;;;6.50;51.27;102197.00;5093517;28;19920;-72
2021/04/08 03:35:16;;;;;;;;;;;6.40;99.90;;;6.65;50.29;102200.13;5093702;28;19926;-73
2021/04/08 03:37:43;;;;;;;;;;;6.50;99.90;;;6.76;50.58;102193.47;5093633;28;19920;-73
2021/04/08 03:40:12;;;;;;;;;;;6.60;99.90;;;6.76;50.00;102197.81;5092284;28;20023;-72
2021/04/08 03:42:41;;;;;;;;;;;6.70;99.90;;;6.83;50.20;102199.81;5093479;28;19920;-73
2021/04/08 03:45:11;;;;;;;;;;;6.70;99.90;;;6.87;50.25;102199.09;5092035;28;19931;-73
2021/04/08 03:47:41;;;;;;;;;;;6.80;99.90;;;6.83;50.46;102198.06;5092151;28;19930;-73
2021/04/08 03:50:10;;;;;;;;;;;6.80;99.90;;;6.78;51.02;102201.41;5092104;28;19989;-73
2021/04/08 03:52:37;;;;;;;;;;;6.70;99.90;;;6.83;49.90;102197.19;5091905;28;19924;-72
2021/04/08 03:55:08;;;;;;;;;;;6.70;99.90;;;6.71;50.23;102188.91;5093429;28;19920;-72
2021/04/08 03:57:38;;;;;;;;;;;6.70;99.90;;;6.77;49.77;102191.72;5091894;28;20355;-73
2021/04/08 04:00:07;;;;;;;;;;;6.70;99.90;;;6.72;49.79;102202.09;5093437;28;20293;-73
2021/04/08 04:02:38;;;;;;;;;;;6.60;99.90;;;6.67;50.30;102211.59;5093473;28;19920;-72
2021/04/08 04:05:07;;;;;;;;;;;6.60;99.90;;;6.81;49.42;102201.50;5093293;28;19920;-73
2021/04/08 04:07:35;;;;;;;;;;;6.70;99.90;;;6.87;49.65;102194.69;5093092;28;20311;-72
2021/04/08 04:10:04;;;;;;;;;;;6.80;99.90;;;6.83;50.27;102200.69;5093004;28;19950;-73
2021/04/08 04:12:34;;;;;;;;;;;6.70;99.90;;;6.90;49.64;102194.81;5093080;28;19920;-73
2021/04/08 04:15:06;;;;;;;;;;;6.70;99.90;;;6.99;49.61;102196.81;5093177;28;20323;-73
2021/04/08 04:17:36;;;;;;;;;;;6.80;99.90;;;6.88;49.97;102198.22;5093379;28;20343;-71
2021/04/08 04:20:05;;;;;;;;;;;6.70;99.90;;;6.78;50.27;102177.72;5093015;28;19974;-73
2021/04/08 04:22:38;;;;;;;;;;;6.80;99.90;;;6.87;50.23;102196.44;5093156;28;19924;-72
2021/04/08 04:25:07;;;;;;;;;;;6.70;99.90;;;6.85;50.10;102191.13;5091877;28;20308;-72
2021/04/08 04:27:35;;;;;;;;;;;6.80;99.90;;;7.03;50.41;102203.94;5093223;28;19967;-72
2021/04/08 04:30:04;;;;;;;;;;;6.90;99.90;;;6.95;49.72;102195.81;5097289;28;19931;-73
2021/04/08 04:32:31;;;;;;;;;;;6.90;99.90;;;6.99;50.45;102202.97;5097322;28;19927;-72
2021/04/08 04:34:59;;;;;;;;;;;6.80;99.90;;;7.00;50.49;102196.88;5095652;28;20436;-72
2021/04/08 04:37:26;;;;;;;;;;;6.80;99.90;;;7.06;50.32;102191.81;5095851;28;19966;-72
2021/04/08 04:39:53;;;;;;;;;;;6.90;99.90;;;6.82;49.94;102176.97;5096804;28;20365;-72
2021/04/08 04:42:21;;;;;;;;;;;6.90;99.90;;;6.58;50.11;102092.09;5096773;28;19931;-72
2021/04/08 04:44:48;;;;;;;;;;;6.90;99.90;;;7.13;49.98;102190.25;5097007;28;19959;-72
2021/04/08 04:47:15;;;;;;;;;;;6.90;99.90;;;7.12;49.91;102188.47;5096887;28;20014;-72
2021/04/08 04:49:43;;;;;;;;;;;6.90;99.90;;;7.21;50.42;102204.53;5096490;28;19955;-72
2021/04/08 04:52:11;;;;;;;;;;;7.00;99.90;;;7.26;50.63;102193.28;5095192;28;19920;-73
2021/04/08 04:54:38;;;;;;;;;;;7.20;99.90;;;7.27;51.03;102196.84;5096660;28;20281;-73
2021/04/08 04:57:06;;;;;;;;;;;7.10;99.90;;;7.29;51.18;102190.78;5096801;28;19923;-73
2021/04/08 04:59:33;;;;;;;;;;;7.20;99.90;;;7.37;51.08;102196.25;5095013;28;19974;-72
2021/04/08 05:02:00;;;;;;;;;;;7.20;99.90;;;7.37;50.87;102191.00;5096451;28;19924;-72
2021/04/08 05:04:28;;;;;;;;;;;7.30;99.90;;;7.32;50.94;102197.84;5094954;28;19920;-72
2021/04/08 05:06:55;;;;;;;;;;;7.30;99.90;;;7.32;51.14;102191.72;5094864;28;19920;-72
2021/04/08 05:09:23;;;;;;;;;;;7.30;99.90;;;7.27;51.88;102199.47;5096334;28;19962;-72
2021/04/08 05:11:50;;;;;;;;;;;7.20;99.90;;;7.16;52.42;102193.00;5096261;28;19928;-72
2021/04/08 05:14:17;;;;;;;;;;;7.10;99.90;;;7.19;52.65;102203.59;5096132;28;19923;-72
2021/04/08 05:16:45;;;;;;;;;;;7.10;99.90;;;7.16;54.30;102199.13;5096094;28;20297;-72
2021/04/08 05:19:12;;;;;;;;;;;7.10;99.90;;;7.00;55.87;102196.88;5095929;28;19928;-73
2021/04/08 05:21:39;;;;;;;;;;;7.00;99.90;;;6.90;56.29;102194.81;5096104;28;20285;-72
2021/04/08 05:24:07;;;;;;;;;;;6.90;99.90;;;6.89;56.89;102194.75;5096062;28;19920;-72
2021/04/08 05:26:35;;;;;;;;;;;6.80;99.90;;;6.91;57.45;102196.56;5095998;28;19920;-72
2021/04/08 05:29:03;;;;;;;;;;;6.70;99.90;;;6.93;56.26;102199.28;5095850;28;20290;-73
2021/04/08 05:31:30;;;;;;;;;;;6.80;99.90;;;6.80;55.90;102178.66;5095796;28;19931;-72
2021/04/08 05:33:57;;;;;;;;;;;6.80;99.90;;;7.13;55.77;102201.66;5095963;28;19947;-72
2021/04/08 05:36:25;;;;;;;;;;;6.90;99.90;;;7.35;54.85;102200.59;5095930;28;19924;-73
2021/04/08 05:38:52;;;;;;;;;;;7.20;99.90;;;7.36;54.37;102178.66;5095574;28;19920;-73
2021/04/08 05:41:19;;;;;;;;;;;7.30;99.90;;;7.61;53.73;102190.78;5093577;28;20482;-72
2021/04/08 05:43:47;;;;;;;;;;;7.50;99.90;;;7.43;53.58;102162.22;5095584;28;19931;-72
2021/04/08 05:46:15;;;;;;;;;;;7.60;99.90;;;7.73;53.64;102201.69;5095588;28;20284;-73
2021/04/08 05:48:42;;;;;;;;;;;7.60;99.90;;;7.75;53.36;102202.63;5095448;28;20018;-72
2021/04/08 05:51:09;;;;;;;;;;;7.70;99.90;;;7.74;53.18;102199.09;5095395;28;19919;-72
2021/04/08 05:53:37;;;;;;;;;;;7.80;99.90;;;7.58;53.33;102181.09;5094266;28;19920;-72
2021/04/08 05:56:05;;;;;;;;;;;7.70;99.90;;;7.75;52.74;102202.63;5093990;28;19924;-73
2021/04/08 05:58:32;;;;;;;;;;;7.70;99.90;;;7.71;53.02;102203.38;5095523;28;19973;-72
2021/04/08 06:01:01;;;;;;;;;;;7.70;99.90;;;7.76;53.05;102193.88;5095443;28;20369;-72
2021/04/08 06:03:28;;;;;;;;;;;7.70;99.90;;;7.86;53.06;102204.72;5094201;28;19920;-73
2021/04/08 06:05:55;;;;;;;;;;;7.70;99.90;;;7.90;52.92;102206.59;5095016;28;20340;-73
2021/04/08 06:08:26;;;;;;;;;;;7.80;99.90;;;7.86;53.15;102206.44;5095240;28;19928;-72
2021/04/08 06:10:54;;;;;;;;;;;7.80;99.90;;;7.86;53.69;102202.06;5095023;28;19982;-72
2021/04/08 06:13:22;;;;;;;;;;;7.80;99.90;;;7.75;53.80;102198.25;5094981;28;20369;-73
2021/04/08 06:15:49;;;;;;;;;;;7.70;99.90;;;7.76;54.20;102197.38;5095110;28;19926;-72
2021/04/08 06:18:17;;;;;;;;;;;7.70;99.90;;;7.74;54.73;102201.72;5095062;28;19927;-73
2021/04/08 06:20:44;;;;;;;;;;;7.70;99.90;;;7.67;55.04;102201.50;5095032;28;19920;-73
2021/04/08 06:23:11;;;;;;;;;;;7.60;99.90;;;7.66;55.41;102208.53;5095026;28;19927;-72
2021/04/08 06:25:39;;;;;;;;;;;7.50;99.90;;;7.74;54.75;102207.00;5094668;28;19978;-72
2021/04/08 06:28:06;;;;;;;;;;;7.60;99.90;;;7.78;54.75;102203.59;5094375;28;19919;-72
2021/04/08 06:30:33;;;;;;;;;;;7.70;99.90;;;7.82;54.89;102208.09;5094477;28;19931;-72
2021/04/08 06:33:01;;;;;;;;;;;7.70;99.90;;;7.84;55.01;102209.03;5094733;28;19948;-72
2021/04/08 06:35:29;;;;;;;;;;;7.70;99.90;;;7.88;55.10;102200.38;5094555;28;19923;-72
2021/04/08 06:37:57;;;;;;;;;;;7.70;99.90;;;7.88;55.44;102212.66;5094442;28;19938;-72
2021/04/08 06:40:24;;;;;;;;;;;7.80;99.90;;;7.89;55.84;102215.34;5094249;28;20027;-71
2021/04/08 06:42:53;;;;;;;;;;;7.80;99.90;;;7.91;55.59;102216.28;5094437;28;19920;-72
2021/04/08 06:45:23;;;;;;;;;;;7.80;99.90;;;7.92;56.03;102218.06;5092938;28;19923;-72
2021/04/08 06:47:54;;;;;;;;;;;7.80;99.90;;;7.94;56.69;102212.81;5094297;28;19924;-72
2021/04/08 06:50:25;;;;;;;;;;;7.80;99.90;;;7.96;56.94;102217.28;5093026;28;19923;-73
2021/04/08 06:52:53;;;;;;;;;;;7.90;99.90;;;8.01;56.22;102226.19;5093086;28;20300;-73
2021/04/08 06:55:21;;;;;;;;;;;7.80;99.90;;;8.07;56.49;102217.59;5094446;28;20297;-73
2021/04/08 06:57:49;;;;;;;;;;;7.90;99.90;;;7.97;56.20;102192.75;5092943;28;20019;-72
2021/04/08 07:00:17;;;;;;;;;;;8.00;99.90;;;8.12;56.14;102214.25;5094212;28;19920;-73
2021/04/08 07:02:45;;;;;;;;;;;8.00;99.90;;;8.09;56.34;102208.00;5092854;28;20472;-72
2021/04/08 07:05:13;;;;;;;;;;;8.00;99.90;;;8.12;56.94;102211.59;5093005;28;19927;-72
2021/04/08 07:07:40;;;;;;;;;;;8.00;99.90;;;8.10;57.03;102207.13;5093857;28;19935;-72
2021/04/08 07:10:09;;;;;;;;;;;8.00;99.90;;;7.96;56.48;102212.03;5094118;28;19920;-73
2021/04/08 07:12:37;;;;;;;;;;;7.90;99.90;;;7.93;56.38;102206.69;5094110;28;19948;-72
2021/04/08 07:15:05;;;;;;;;;;;7.90;99.90;;;8.03;56.94;102218.38;5093665;28;19951;-72
2021/04/08 07:17:33;;;;;;;;;;;7.90;99.90;;;7.91;56.82;102210.13;5093871;28;19935;-72
2021/04/08 07:20:00;;;;;;;;;;;7.80;99.90;;;7.78;56.89;102208.88;5093688;28;19930;-72
2021/04/08 07:22:27;;;;;;;;;;;7.70;99.90;;;7.53;56.43;102192.34;5093749;28;19943;-72
2021/04/08 07:24:55;;;;;;;;;;;7.50;99.90;;;7.70;57.45;102212.16;5093794;28;19920;-72
2021/04/08 07:27:25;;;;;;;;;;;7.50;99.90;;;7.66;57.25;102205.91;5093250;28;19919;-72
2021/04/08 07:29:57;;;;;;;;;;;7.50;99.90;;;7.51;56.88;102205.44;5093459;28;19959;-72
2021/04/08 07:32:26;;;;;;;;;;;7.40;99.90;;;7.60;56.94;102210.09;5093425;28;19927;-72
2021/04/08 07:34:56;;;;;;;;;;;7.50;99.90;;;7.63;57.08;102208.44;5093683;28;19920;-72
2021/04/08 07:37:26;;;;;;;;;;;7.50;99.90;;;7.70;56.92;102213.06;5092216;28;20279;-72
2021/04/08 07:39:54;;;;;;;;;;;7.50;99.90;;;7.67;57.39;102210.31;5092125;28;20010;-72
2021/04/08 07:42:27;;;;;;;;;;;7.50;99.90;;;7.60;57.60;102216.25;5093453;28;19973;-72
2021/04/08 07:44:56;;;;;;;;;;;7.40;99.90;;;7.57;56.89;102224.06;5093607;28;19920;-72
2021/04/08 07:47:29;;;;;;;;;;;7.40;99.90;;;7.49;57.57;102222.94;5076035;28;19924;-74
2021/04/08 07:49:58;;;;;;;;;;;7.30;99.90;;;7.42;56.94;102214.81;5073071;28;20322;-71
2021/04/08 07:52:28;;;;;;;;;;;7.30;99.90;;;7.31;56.26;102219.75;5073047;28;19973;-72
2021/04/08 07:55:07;;;;;;;;;;;7.20;99.90;;;7.40;56.86;102217.41;5071913;28;19931;-71
2021/04/08 07:57:52;;;;;;;;;;;7.20;99.90;;;7.39;56.22;102220.00;5072827;28;20296;-81
2021/04/08 08:00:21;;;;;;;;;;;7.20;99.90;;;7.50;56.50;102214.19;5071822;28;19921;-81
2021/04/08 08:02:50;;;;;;;;;;;7.30;99.90;;;7.43;56.20;102216.59;5072680;28;19924;-83
2021/04/08 08:05:22;;;;;;;;;;;7.30;99.90;;;7.31;56.05;102219.75;5072894;28;19924;-83
2021/04/08 08:07:51;;;;;;;;;;;7.10;99.90;;;7.35;56.54;102213.75;5072714;28;19924;-83
2021/04/08 08:10:21;;;;;;;;;;;7.20;99.90;;;7.37;56.56;102235.75;5071768;28;19924;-84
2021/04/08 08:12:48;;;;;;;;;;;7.20;99.90;;;7.34;56.22;102225.09;5073102;28;19920;-84
2021/04/08 08:15:22;;;;;;;;;;;7.20;99.90;;;7.42;56.74;102230.59;5072916;28;19977;-84
2021/04/08 08:17:49;;;;;;;;;;;7.20;99.90;;;7.51;56.67;102226.50;5072925;28;20377;-84
2021/04/08 08:20:19;;;;;;;;;;;7.30;99.90;;;7.51;57.11;102234.41;5072839;28;19964;-84
2021/04/08 08:22:47;;;;;;;;;;;7.40;99.90;;;7.54;56.67;102221.34;5071450;28;19928;-80
2021/04/08 08:25:22;;;;;;;;;;;7.40;99.90;;;7.54;56.00;102223.97;5072985;28;19930;-80
2021/04/08 08:27:51;;;;;;;;;;;7.40;99.90;;;7.51;56.61;102239.66;5072560;28;19920;-80
2021/04/08 08:30:21;;;;;;;;;;;7.40;99.90;;;7.11;56.63;102128.78;5072669;28;20295;-80
2021/04/08 08:33:10;;;;;;;;;;;7.40;99.90;;;7.73;56.33;102228.03;5072825;28;19920;-80
2021/04/08 08:35:38;;;;;;;;;;;7.60;99.90;;;7.82;55.79;102220.41;5071589;28;19927;-80
2021/04/08 08:38:15;;;;;;;;;;;7.60;99.90;;;7.75;55.81;102218.44;5072206;28;20377;-80
2021/04/08 08:40:43;;;;;;;;;;;7.60;99.90;;;7.85;56.07;102224.00;5071378;28;19930;-79
2021/04/08 08:43:11;;;;;;;;;;;7.60;99.90;;;7.79;55.75;102215.94;5071152;28;19932;-81
2021/04/08 08:45:39;;;;;;;;;;;7.70;99.90;;;7.71;56.43;102208.66;5071152;28;19925;-82
2021/04/08 08:48:11;;;;;;;;;;;7.60;99.90;;;7.85;56.89;102223.09;5072545;28;19966;-80
2021/04/08 08:50:40;;;;;;;;;;;7.70;99.90;;;7.84;56.66;102213.44;5072742;28;19935;-81
2021/04/08 08:53:09;;;;;;;;;;;7.70;99.90;;;7.83;57.31;102215.16;5072381;28;20297;-81
2021/04/08 08:55:38;;;;;;;;;;;7.70;99.90;;;7.82;56.53;102218.63;5072730;28;19927;-81
2021/04/08 08:58:06;;;;;;;;;;;7.70;99.90;;;7.69;56.48;102200.72;5072489;28;19924;-80
2021/04/08 09:00:34;;;;;;;;;;;7.70;99.90;;;7.86;56.62;102217.88;5072558;28;19924;-80
2021/04/08 09:03:04;;;;;;;;;;;7.70;99.90;;;7.89;56.23;102225.88;5071304;28;19970;-81
2021/04/08 09:05:34;;;;;;;;;;;7.70;99.90;;;7.84;56.83;102216.94;5072517;28;20365;-81
2021/04/08 09:08:08;;;;;;;;;;;7.70;99.90;;;7.73;56.86;102197.31;5070965;28;19920;-79
2021/04/08 09:10:53;;;;;;;;;;;7.70;99.90;;;7.79;57.06;102218.56;5071248;28;19924;-73
2021/04/08 09:13:20;;;;;;;;;;;7.70;99.90;;;7.85;57.25;102225.75;5072370;28;20129;-69
2021/04/08 09:15:48;;;;;;;;;;;7.70;99.90;;;7.86;57.41;102228.41;5074523;28;19927;-68
2021/04/08 09:18:20;;;;;;;;;;;7.70;99.90;;;7.89;58.15;102230.25;5075782;28;19924;-68
2021/04/08 09:20:48;;;;;;;;;;;7.70;99.90;;;7.97;58.42;102239.28;5075782;28;19974;-68
2021/04/08 09:23:18;;;;;;;;;;;7.80;99.90;;;8.00;58.32;102229.69;5074252;28;19928;-65
2021/04/08 09:25:53;;;;;;;;;;;7.80;99.90;;;8.03;58.83;102235.03;5075772;28;19924;-66
2021/04/08 09:28:25;;;;;;;;;;;7.90;99.90;;;8.15;58.59;102223.94;5075413;28;19921;-68
2021/04/08 09:30:59;;;;;;;;;;;7.90;99.90;;;8.07;57.61;102220.25;5075622;28;19921;-66
2021/04/08 09:33:59;;;;;;;;;;;7.90;99.90;;;8.29;58.10;102213.81;5075507;28;19920;-72
2021/04/08 09:36:34;;;;;;;;;;;8.00;99.90;;;8.14;57.17;102219.53;5074447;28;19924;-71
2021/04/08 09:39:24;;;;;;;;;;;8.00;99.90;;;8.32;58.39;102219.19;5074306;28;19931;-71
2021/04/08 09:41:55;;;;;;;;;;;8.10;99.90;;;8.36;57.95;102213.13;5074171;28;19925;-71
2021/04/08 09:44:24;;;;;;;;;;;8.20;99.90;;;8.18;57.61;102181.88;5075502;28;20350;-70
2021/04/08 09:46:54;;;;;;;;;;;8.20;99.90;;;8.58;57.91;102210.19;5073968;28;19924;-70
2021/04/08 09:49:45;;;;;;;;;;;8.40;99.90;;;8.71;57.56;102220.19;5075199;28;19924;-70
2021/04/08 09:52:13;;;;;;;;;;;8.50;99.90;;;8.59;56.48;102196.16;5075203;28;19925;-70
2021/04/08 09:54:43;;;;;;;;;;;8.50;99.90;;;8.54;55.94;102193.38;5075342;28;19924;-71
2021/04/08 09:57:11;;;;;;;;;;;8.50;99.90;;;8.74;56.56;102200.06;5075092;28;19930;-70
2021/04/08 09:59:55;;;;;;;;;;;8.60;99.90;;;8.81;56.56;102214.25;5075302;28;20328;-70
2021/04/08 10:02:23;;;;;;;;;;;8.60;99.90;;;8.85;56.96;102205.56;5073984;28;19920;-70
2021/04/08 10:05:12;;;;;;;;;;;8.70;99.90;;;8.85;56.04;102211.75;5074855;28;20401;-70
2021/04/08 10:07:50;;;;;;;;;;;8.70;99.90;;;8.74;55.49;102180.69;5071990;28;19920;-69
2021/04/08 10:10:18;;;;;;;;;;;8.70;99.90;;;9.03;55.61;102200.75;5073731;28;19973;-71
2021/04/08 10:12:46;;;;;;;;;;;8.90;99.90;;;9.06;55.22;102174.41;5074944;28;20262;-70
2021/04/08 10:15:18;;;;;;;;;;;9.00;99.90;;;9.26;54.25;102202.16;5074709;28;19960;-71
2021/04/08 10:17:46;;;;;;;;;;;9.10;99.90;;;9.19;53.78;102196.72;5075167;28;19920;-71
2021/04/08 10:20:15;;;;;;;;;;;9.10;99.90;;;9.18;53.57;102190.53;5074793;28;19927;-72
2021/04/08 10:22:44;;;;;;;;;;;9.00;99.90;;;9.24;53.91;102203.88;5074614;28;19959;-71
2021/04/08 10:25:12;;;;;;;;;;;9.00;99.90;;;9.23;54.71;102169.53;5074539;28;19927;-72
2021/04/08 10:27:40;;;;;;;;;;;9.20;99.90;;;9.40;53.35;102195.44;5074075;28;19970;-71
2021/04/08 10:30:18;;;;;;;;;;;9.20;99.90;;;9.36;53.70;102201.50;5074659;28;19920;-73
2021/04/08 10:32:45;;;;;;;;;;;9.20;99.90;;;9.22;52.36;102189.75;5074586;28;19924;-72
2021/04/08 10:35:25;;;;;;;;;;;9.10;99.90;;;9.37;53.92;102207.69;5073096;28;19920;-72
2021/04/08 10:38:03;;;;;;;;;;;9.10;99.90;;;9.52;54.63;102187.78;5073088;28;19920;-72
2021/04/08 10:40:31;;;;;;;;;;;9.30;99.90;;;9.67;55.38;102188.09;5073196;28;19927;-72
2021/04/08 10:43:09;;;;;;;;;;;9.40;99.90;;;9.96;56.35;102196.59;5074080;28;19925;-71
2021/04/08 10:45:37;;;;;;;;;;;9.70;99.90;;;10.19;52.66;102186.47;5074077;28;20334;-70
2021/04/08 10:48:07;;;;;;;;;;;10.00;99.90;;;10.43;50.72;102185.13;5073989;28;19924;-70
2021/04/08 10:50:35;;;;;;;;;;;10.30;99.90;;;10.40;49.21;102185.09;5074001;28;19920;-71
2021/04/08 10:53:02;;;;;;;;;;;10.30;99.90;;;10.54;48.51;102190.63;5072993;28;19928;-71
2021/04/08 10:55:30;;;;;;;;;;;10.40;99.90;;;10.88;49.27;102185.00;5072740;28;19920;-73
2021/04/08 10:57:57;;;;;;;;;;;10.70;99.90;;;11.00;46.56;102187.84;5074005;28;19946;-70
2021/04/08 11:00:24;;;;;;;;;;;10.80;99.90;;;11.18;48.88;102180.16;5073873;28;20323;-70
2021/04/08 11:02:53;;;;;;;;;;;11.00;99.90;;;11.24;48.19;102180.25;5072380;28;19924;-70
2021/04/08 11:05:23;;;;;;;;;;;11.10;99.90;;;11.22;47.81;102175.81;5073818;28;19924;-71
2021/04/08 11:07:55;;;;;;;;;;;11.00;99.90;;;11.42;47.53;102175.19;5072446;28;19924;-70
2021/04/08 11:10:24;;;;;;;;;;;11.20;99.90;;;11.54;46.44;102169.16;5073581;28;20463;-70
2021/04/08 11:12:52;;;;;;;;;;;11.40;99.90;;;11.48;46.54;102148.78;5073871;28;20293;-71
2021/04/08 11:15:22;;;;;;;;;;;11.50;99.90;;;11.67;46.45;102177.31;5073492;28;19935;-71
2021/04/08 11:17:51;;;;;;;;;;;11.50;99.90;;;11.67;44.10;102179.09;5073135;28;19920;-71
2021/04/08 11:20:26;;;;;;;;;;;11.50;99.90;;;11.81;43.81;102171.31;5071897;28;19951;-71
2021/04/08 11:22:55;;;;;;;;;;;11.60;99.90;;;12.04;44.31;102173.31;5072975;28;19977;-71
2021/04/08 11:25:24;;;;;;;;;;;11.80;99.90;;;12.01;42.95;102193.59;5073365;28;19967;-71
2021/04/08 11:27:52;;;;;;;;;;;11.90;99.90;;;11.90;41.86;102164.34;5071849;28;19995;-70
2021/04/08 11:30:22;;;;;;;;;;;11.80;99.90;;;11.88;41.70;102162.53;5073259;28;20288;-70
2021/04/08 11:32:52;;;;;;;;;;;11.80;99.90;;;11.82;42.32;102178.38;5072041;28;19924;-70
2021/04/08 11:35:31;;;;;;;;;;;11.70;99.90;;;12.10;42.06;102180.47;5072282;28;19924;-70